Terminal Aerodrome Forecast
Issued by NWS

Home | Current Version | Previous Version | Text Only | Print | Product List | Glossary Off
Versions: 1 2 3 4 5 6 7 8 9 10 11 12 13 14

000
FTUS43 KICT 231700 RRA
TAFSLN
TAF
KSLN 231741Z 2318/2418 36011KT P6SM SCT250
     FM231900 03011KT P6SM VCTS SCT040CB BKN070
     FM232200 05010KT P6SM SCT070 BKN250
     FM240200 13008KT P6SM SCT250=

USA.gov is the U.S. government's official web portal to all federal, state and local government web resources and services.